sensor_id;sensor_type;location;lat;lon;timestamp;pressure;altitude;pressure_sealevel;temperature;humidity
43691;BME280;29293;52.190;21.226;2023-02-28T00:04:50;101885.94;;;-6.08;100.00
43691;BME280;29293;52.190;21.226;2023-02-28T00:20:12;101891.99;;;-6.27;100.00
43691;BME280;29293;52.190;21.226;2023-02-28T00:35:23;101904.67;;;-6.45;100.00
43691;BME280;29293;52.190;21.226;2023-02-28T00:50:32;101906.61;;;-6.53;100.00
43691;BME280;29293;52.190;21.226;2023-02-28T01:05:42;101904.58;;;-6.57;100.00
43691;BME280;29293;52.190;21.226;2023-02-28T01:20:53;101898.13;;;-6.70;100.00
43691;BME280;29293;52.190;21.226;2023-02-28T01:36:05;101897.64;;;-6.81;100.00
43691;BME280;29293;52.190;21.226;2023-02-28T01:51:21;101904.02;;;-6.93;100.00
43691;BME280;29293;52.190;21.226;2023-02-28T02:06:37;101908.19;;;-7.01;100.00
43691;BME280;29293;52.190;21.226;2023-02-28T02:38:09;101902.52;;;-7.08;100.00
43691;BME280;29293;52.190;21.226;2023-02-28T02:53:24;101908.28;;;-7.16;100.00
43691;BME280;29293;52.190;21.226;2023-02-28T03:08:39;101916.33;;;-7.23;100.00
43691;BME280;29293;52.190;21.226;2023-02-28T03:23:51;101920.15;;;-7.31;100.00
43691;BME280;29293;52.190;21.226;2023-02-28T03:39:05;101921.99;;;-7.36;100.00
43691;BME280;29293;52.190;21.226;2023-02-28T03:54:17;101927.00;;;-7.41;100.00
43691;BME280;29293;52.190;21.226;2023-02-28T04:09:25;101931.13;;;-7.47;100.00
43691;BME280;29293;52.190;21.226;2023-02-28T04:24:33;101931.21;;;-7.52;100.00
43691;BME280;29293;52.190;21.226;2023-02-28T04:39:41;101934.84;;;-7.60;100.00
43691;BME280;29293;52.190;21.226;2023-02-28T04:54:48;101938.40;;;-7.62;100.00
43691;BME280;29293;52.190;21.226;2023-02-28T05:09:56;101943.73;;;-7.66;100.00
43691;BME280;29293;52.190;21.226;2023-02-28T05:25:04;101960.46;;;-7.69;100.00
43691;BME280;29293;52.190;21.226;2023-02-28T05:40:12;101978.91;;;-7.69;100.00
43691;BME280;29293;52.190;21.226;2023-02-28T05:55:23;101989.84;;;-7.58;100.00
43691;BME280;29293;52.190;21.226;2023-02-28T06:10:34;102004.34;;;-7.38;100.00
43691;BME280;29293;52.190;21.226;2023-02-28T06:25:46;102007.39;;;-7.08;100.00
43691;BME280;29293;52.190;21.226;2023-02-28T06:40:59;102006.66;;;-6.64;100.00
43691;BME280;29293;52.190;21.226;2023-02-28T06:56:11;101989.20;;;-6.08;100.00
43691;BME280;29293;52.190;21.226;2023-02-28T07:11:21;101976.00;;;-5.23;100.00
43691;BME280;29293;52.190;21.226;2023-02-28T07:26:30;101969.48;;;-4.34;100.00
43691;BME280;29293;52.190;21.226;2023-02-28T07:41:39;101966.42;;;-3.36;100.00
43691;BME280;29293;52.190;21.226;2023-02-28T07:56:50;101961.81;;;-2.51;100.00
43691;BME280;29293;52.190;21.226;2023-02-28T08:11:58;101964.17;;;-1.99;100.00
43691;BME280;29293;52.190;21.226;2023-02-28T08:27:06;101967.73;;;-1.57;100.00
43691;BME280;29293;52.190;21.226;2023-02-28T08:42:18;101954.61;;;-1.31;100.00
43691;BME280;29293;52.190;21.226;2023-02-28T08:57:26;101964.27;;;-1.06;100.00
43691;BME280;29293;52.190;21.226;2023-02-28T09:12:35;101962.70;;;-0.89;100.00
43691;BME280;29293;52.190;21.226;2023-02-28T09:27:43;101970.17;;;-0.52;100.00
43691;BME280;29293;52.190;21.226;2023-02-28T09:42:53;101969.28;;;-0.19;100.00
43691;BME280;29293;52.190;21.226;2023-02-28T09:58:03;101964.48;;;0.16;100.00
43691;BME280;29293;52.190;21.226;2023-02-28T10:13:45;101963.81;;;0.53;100.00
43691;BME280;29293;52.190;21.226;2023-02-28T10:29:00;101965.94;;;0.86;100.00
43691;BME280;29293;52.190;21.226;2023-02-28T10:44:18;101959.51;;;1.08;100.00
43691;BME280;29293;52.190;21.226;2023-02-28T10:59:30;101957.41;;;1.42;100.00
43691;BME280;29293;52.190;21.226;2023-02-28T11:14:46;101940.64;;;1.73;100.00
43691;BME280;29293;52.190;21.226;2023-02-28T11:29:55;101915.84;;;2.13;100.00
43691;BME280;29293;52.190;21.226;2023-02-28T11:45:24;101894.02;;;2.26;100.00
43691;BME280;29293;52.190;21.226;2023-02-28T12:00:49;101875.58;;;2.49;100.00
43691;BME280;29293;52.190;21.226;2023-02-28T12:16:20;101861.81;;;2.58;100.00
43691;BME280;29293;52.190;21.226;2023-02-28T12:31:36;101847.34;;;2.77;100.00
43691;BME280;29293;52.190;21.226;2023-02-28T12:46:48;101832.13;;;2.95;100.00
43691;BME280;29293;52.190;21.226;2023-02-28T13:17:41;101811.60;;;3.18;100.00
43691;BME280;29293;52.190;21.226;2023-02-28T13:48:36;101778.23;;;3.20;100.00
43691;BME280;29293;52.190;21.226;2023-02-28T14:03:46;101758.63;;;3.07;100.00
43691;BME280;29293;52.190;21.226;2023-02-28T14:19:01;101741.33;;;2.88;100.00
43691;BME280;29293;52.190;21.226;2023-02-28T14:34:30;101731.63;;;2.66;100.00
43691;BME280;29293;52.190;21.226;2023-02-28T14:49:44;101728.29;;;2.50;100.00
43691;BME280;29293;52.190;21.226;2023-02-28T15:04:57;101717.32;;;2.27;100.00
43691;BME280;29293;52.190;21.226;2023-02-28T15:20:10;101715.09;;;1.85;100.00
43691;BME280;29293;52.190;21.226;2023-02-28T15:35:26;101719.90;;;1.44;100.00
43691;BME280;29293;52.190;21.226;2023-02-28T15:50:36;101720.09;;;0.94;100.00
43691;BME280;29293;52.190;21.226;2023-02-28T16:06:33;101727.19;;;0.33;100.00
43691;BME280;29293;52.190;21.226;2023-02-28T16:21:43;101733.66;;;-0.37;100.00
43691;BME280;29293;52.190;21.226;2023-02-28T16:36:51;101744.69;;;-1.06;100.00
43691;BME280;29293;52.190;21.226;2023-02-28T16:51:56;101744.40;;;-1.61;100.00
43691;BME280;29293;52.190;21.226;2023-02-28T17:07:04;101755.86;;;-2.02;100.00
43691;BME280;29293;52.190;21.226;2023-02-28T17:22:12;101772.80;;;-2.40;100.00
43691;BME280;29293;52.190;21.226;2023-02-28T17:37:19;101782.66;;;-2.66;100.00
43691;BME280;29293;52.190;21.226;2023-02-28T17:52:26;101767.46;;;-2.86;100.00
43691;BME280;29293;52.190;21.226;2023-02-28T18:07:37;101767.88;;;-3.03;100.00
43691;BME280;29293;52.190;21.226;2023-02-28T18:22:45;101753.42;;;-3.19;100.00
43691;BME280;29293;52.190;21.226;2023-02-28T18:37:52;101736.23;;;-3.44;100.00
43691;BME280;29293;52.190;21.226;2023-02-28T18:53:02;101720.06;;;-3.62;100.00
43691;BME280;29293;52.190;21.226;2023-02-28T19:08:12;101721.17;;;-3.79;100.00
43691;BME280;29293;52.190;21.226;2023-02-28T19:23:20;101734.39;;;-3.94;100.00
43691;BME280;29293;52.190;21.226;2023-02-28T19:38:29;101751.73;;;-4.05;100.00
43691;BME280;29293;52.190;21.226;2023-02-28T19:53:42;101761.02;;;-4.19;100.00
43691;BME280;29293;52.190;21.226;2023-02-28T20:08:54;101762.66;;;-4.32;100.00
43691;BME280;29293;52.190;21.226;2023-02-28T20:24:03;101768.41;;;-4.47;100.00
43691;BME280;29293;52.190;21.226;2023-02-28T20:39:11;101769.71;;;-4.61;100.00
43691;BME280;29293;52.190;21.226;2023-02-28T20:54:20;101741.13;;;-4.85;100.00
43691;BME280;29293;52.190;21.226;2023-02-28T21:09:28;101748.96;;;-4.94;100.00
43691;BME280;29293;52.190;21.226;2023-02-28T21:24:35;101737.52;;;-5.07;100.00
43691;BME280;29293;52.190;21.226;2023-02-28T21:39:44;101736.66;;;-5.27;100.00
43691;BME280;29293;52.190;21.226;2023-02-28T21:54:51;101737.57;;;-5.41;100.00
43691;BME280;29293;52.190;21.226;2023-02-28T22:09:59;101746.42;;;-5.49;100.00
43691;BME280;29293;52.190;21.226;2023-02-28T22:25:08;101736.14;;;-5.61;100.00
43691;BME280;29293;52.190;21.226;2023-02-28T22:40:16;101725.06;;;-5.76;100.00
43691;BME280;29293;52.190;21.226;2023-02-28T22:55:23;101714.28;;;-5.81;100.00
43691;BME280;29293;52.190;21.226;2023-02-28T23:10:31;101724.16;;;-5.88;100.00
43691;BME280;29293;52.190;21.226;2023-02-28T23:25:41;101739.62;;;-5.79;100.00
43691;BME280;29293;52.190;21.226;2023-02-28T23:40:48;101724.09;;;-5.79;100.00
43691;BME280;29293;52.190;21.226;2023-02-28T23:55:56;101729.96;;;-5.81;100.00
